createdAt,value
2023-05-25T00:01:02.368Z,94631.19
2023-05-25T00:03:29.808Z,94632.09
2023-05-25T00:05:56.350Z,94634.91
2023-05-25T00:08:22.802Z,94633.81
2023-05-25T00:10:49.249Z,94634.66
2023-05-25T00:13:16.024Z,94627.41
2023-05-25T00:15:43.877Z,94623.38
2023-05-25T00:18:10.489Z,94622.66
2023-05-25T00:20:37.223Z,94617.78
2023-05-25T00:23:03.759Z,94622.16
2023-05-25T00:25:30.236Z,94617.56
2023-05-25T00:27:56.708Z,94610.00
2023-05-25T00:30:23.164Z,94613.47
2023-05-25T00:32:49.651Z,94614.94
2023-05-25T00:35:16.147Z,94617.75
2023-05-25T00:37:42.696Z,94618.13
2023-05-25T00:40:09.167Z,94615.09
2023-05-25T00:42:36.180Z,94605.72
2023-05-25T00:45:02.763Z,94606.56
2023-05-25T00:47:29.296Z,94605.94
2023-05-25T00:49:55.868Z,94605.44
2023-05-25T00:52:22.305Z,94600.16
2023-05-25T00:54:48.845Z,94598.50
2023-05-25T00:57:15.305Z,94591.06
2023-05-25T00:59:41.826Z,94588.84
2023-05-25T01:02:08.397Z,94593.31
2023-05-25T01:04:34.951Z,94584.38
2023-05-25T01:07:02.079Z,94587.22
2023-05-25T01:09:28.536Z,94581.94
2023-05-25T01:11:54.998Z,94585.75
2023-05-25T01:14:21.452Z,94584.59
2023-05-25T01:16:48.233Z,94582.13
2023-05-25T01:19:14.711Z,94576.94
2023-05-25T01:21:41.150Z,94578.31
2023-05-25T01:24:07.659Z,94579.69
2023-05-25T01:26:34.158Z,94578.47
2023-05-25T01:29:01.382Z,94573.34
2023-05-25T01:31:27.950Z,94569.16
2023-05-25T01:33:56.569Z,94572.41
2023-05-25T01:36:24.167Z,94573.28
2023-05-25T01:38:50.644Z,94570.66
2023-05-25T01:41:17.104Z,94572.66
2023-05-25T01:43:43.517Z,94576.75
2023-05-25T01:46:10.054Z,94574.59
2023-05-25T01:48:36.556Z,94571.00
2023-05-25T01:51:03.007Z,94574.47
2023-05-25T01:53:29.471Z,94572.91
2023-05-25T01:55:55.982Z,94571.59
2023-05-25T01:58:22.441Z,94570.00
2023-05-25T02:00:48.958Z,94568.97
2023-05-25T02:03:15.410Z,94577.38
2023-05-25T02:05:42.064Z,94566.41
2023-05-25T02:08:08.736Z,94575.00
2023-05-25T02:10:35.223Z,94571.97
2023-05-25T02:13:01.743Z,94568.44
2023-05-25T02:15:28.229Z,94570.03
2023-05-25T02:17:54.755Z,94572.63
2023-05-25T02:20:21.308Z,94575.28
2023-05-25T02:22:47.961Z,94567.34
2023-05-25T02:25:14.509Z,94565.69
2023-05-25T02:27:41.012Z,94563.03
2023-05-25T02:30:07.463Z,94560.00
2023-05-25T02:32:34.904Z,94563.13
2023-05-25T02:35:01.757Z,94576.16
2023-05-25T02:37:28.189Z,94569.31
2023-05-25T02:39:54.656Z,94563.19
2023-05-25T02:42:21.094Z,94574.81
2023-05-25T02:44:47.805Z,94569.88
2023-05-25T02:47:14.289Z,94564.97
2023-05-25T02:49:40.722Z,94571.88
2023-05-25T02:52:07.170Z,94559.09
2023-05-25T02:54:33.667Z,94567.41
2023-05-25T02:57:00.146Z,94561.84
2023-05-25T02:59:26.629Z,94567.59
2023-05-25T03:01:53.109Z,94574.72
2023-05-25T03:04:19.564Z,94561.09
2023-05-25T03:06:45.993Z,94576.16
2023-05-25T03:09:12.554Z,94572.25
2023-05-25T03:11:39.061Z,94571.88
2023-05-25T03:14:05.500Z,94567.22
2023-05-25T03:16:31.982Z,94575.09
2023-05-25T03:18:58.462Z,94577.84
2023-05-25T03:21:24.901Z,94582.69
2023-05-25T03:23:51.347Z,94578.84
2023-05-25T03:26:17.804Z,94577.75
2023-05-25T03:28:44.649Z,94582.25
2023-05-25T03:31:11.146Z,94582.69
2023-05-25T03:33:37.586Z,94580.03
2023-05-25T03:36:04.063Z,94586.88
2023-05-25T03:38:30.554Z,94584.25
2023-05-25T03:40:57.092Z,94580.97
2023-05-25T03:43:23.977Z,94580.97
2023-05-25T03:45:50.598Z,94583.34
2023-05-25T03:48:17.102Z,94584.34
2023-05-25T03:50:43.577Z,94586.00
2023-05-25T03:53:10.075Z,94591.75
2023-05-25T03:55:36.550Z,94583.34
2023-05-25T03:58:03.522Z,94572.28
2023-05-25T04:00:30.004Z,94577.06
2023-05-25T04:02:56.920Z,94575.41
2023-05-25T04:05:24.297Z,94584.34
2023-05-25T04:07:50.755Z,94571.94
2023-05-25T04:10:17.225Z,94583.00
2023-05-25T04:12:43.669Z,94579.03
2023-05-25T04:15:10.146Z,94576.66
2023-05-25T04:17:39.252Z,94578.31
2023-05-25T04:20:06.163Z,94582.16
2023-05-25T04:22:32.713Z,94589.63
2023-05-25T04:24:59.272Z,94591.47
2023-05-25T04:27:25.707Z,94592.28
2023-05-25T04:29:52.163Z,94588.28
2023-05-25T04:32:18.604Z,94590.72
2023-05-25T04:34:45.065Z,94593.50
2023-05-25T04:37:11.539Z,94590.66
2023-05-25T04:39:38.078Z,94594.09
2023-05-25T04:42:04.992Z,94595.13
2023-05-25T04:44:31.629Z,94596.97
2023-05-25T04:46:58.341Z,94602.88
2023-05-25T04:49:24.784Z,94617.31
2023-05-25T04:51:51.514Z,94610.72
2023-05-25T04:54:19.092Z,94628.66
2023-05-25T04:56:46.047Z,94614.16
2023-05-25T04:59:12.474Z,94622.00
2023-05-25T05:01:38.997Z,94622.00
2023-05-25T05:04:06.641Z,94633.22
2023-05-25T05:06:34.193Z,94630.75
2023-05-25T05:09:00.656Z,94634.41
2023-05-25T05:11:27.098Z,94639.06
2023-05-25T05:13:53.881Z,94630.09
2023-05-25T05:16:22.476Z,94635.59
2023-05-25T05:18:50.069Z,94645.69
2023-05-25T05:21:16.643Z,94648.19
2023-05-25T05:23:43.127Z,94651.75
2023-05-25T05:26:09.586Z,94654.94
2023-05-25T05:28:36.019Z,94649.66
2023-05-25T05:31:03.025Z,94662.69
2023-05-25T05:33:29.632Z,94665.00
2023-05-25T05:35:56.163Z,94670.19
2023-05-25T05:38:23.021Z,94667.94
2023-05-25T05:40:50.382Z,94676.00
2023-05-25T05:43:16.844Z,94677.22
2023-05-25T05:45:43.513Z,94685.09
2023-05-25T05:48:10.154Z,94683.88
2023-05-25T05:50:36.916Z,94695.13
2023-05-25T05:53:03.524Z,94687.09
2023-05-25T05:55:29.977Z,94685.34
2023-05-25T05:57:57.710Z,94687.72
2023-05-25T06:00:25.298Z,94695.31
2023-05-25T06:02:51.816Z,94693.28
2023-05-25T06:05:18.510Z,94696.59
2023-05-25T06:07:45.060Z,94695.03
2023-05-25T06:10:11.481Z,94691.47
2023-05-25T06:12:37.930Z,94694.84
2023-05-25T06:17:31.364Z,94702.00
2023-05-25T06:19:57.905Z,94711.00
2023-05-25T06:22:24.418Z,94710.59
2023-05-25T06:24:51.290Z,94706.75
2023-05-25T06:27:17.826Z,94705.53
2023-05-25T06:29:44.279Z,94710.59
2023-05-25T06:32:10.829Z,94716.03
2023-05-25T06:34:38.287Z,94714.13
2023-05-25T06:37:05.230Z,94710.19
2023-05-25T06:39:32.860Z,94716.00
2023-05-25T06:42:00.425Z,94719.53
2023-05-25T06:44:26.868Z,94721.56
2023-05-25T06:46:53.337Z,94732.72
2023-05-25T06:49:19.785Z,94730.47
2023-05-25T06:51:46.269Z,94732.97
2023-05-25T06:54:14.375Z,94732.25
2023-05-25T06:56:40.908Z,94745.56
2023-05-25T06:59:08.393Z,94746.69
2023-05-25T07:01:34.906Z,94751.53
2023-05-25T07:04:01.397Z,94743.31
2023-05-25T07:06:27.844Z,94755.56
2023-05-25T07:08:54.334Z,94750.69
2023-05-25T07:11:20.860Z,94747.47
2023-05-25T07:13:47.348Z,94752.13
2023-05-25T07:16:13.842Z,94761.94
2023-05-25T07:18:40.348Z,94754.25
2023-05-25T07:21:06.829Z,94755.66
2023-05-25T07:23:33.452Z,94761.47
2023-05-25T07:25:59.900Z,94752.81
2023-05-25T07:28:26.355Z,94764.72
2023-05-25T07:30:52.791Z,94755.59
2023-05-25T07:33:19.253Z,94756.28
2023-05-25T07:35:45.871Z,94767.84
2023-05-25T07:38:12.521Z,94762.97
2023-05-25T07:40:39.541Z,94753.00
2023-05-25T07:43:08.222Z,94760.75
2023-05-25T07:45:35.000Z,94764.22
2023-05-25T07:48:01.473Z,94765.88
2023-05-25T07:50:29.414Z,94765.25
2023-05-25T07:52:56.888Z,94768.13
2023-05-25T07:55:23.343Z,94781.06
2023-05-25T07:57:49.872Z,94779.47
2023-05-25T08:00:16.452Z,94785.19
2023-05-25T08:02:43.045Z,94778.72
2023-05-25T08:05:09.691Z,94782.47
2023-05-25T08:07:36.193Z,94784.63
2023-05-25T08:10:02.631Z,94787.38
2023-05-25T08:12:45.845Z,94780.06
2023-05-25T08:15:13.926Z,94786.69
2023-05-25T08:17:40.426Z,94791.88
2023-05-25T08:20:06.958Z,94792.91
2023-05-25T08:22:33.425Z,94794.16
2023-05-25T08:24:59.896Z,94792.28
2023-05-25T08:27:26.353Z,94794.53
2023-05-25T08:29:52.788Z,94794.97
2023-05-25T08:32:19.270Z,94800.53
2023-05-25T08:34:45.697Z,94806.66
2023-05-25T08:37:12.120Z,94814.28
2023-05-25T08:39:38.600Z,94810.81
2023-05-25T08:42:05.042Z,94807.94
2023-05-25T08:44:31.459Z,94816.75
2023-05-25T08:46:57.935Z,94816.13
2023-05-25T08:49:24.473Z,94812.25
2023-05-25T08:51:50.952Z,94818.81
2023-05-25T08:54:17.438Z,94823.34
2023-05-25T08:56:43.928Z,94824.97
2023-05-25T08:59:10.426Z,94830.09
2023-05-25T09:01:36.907Z,94829.91
2023-05-25T09:04:03.430Z,94827.44
2023-05-25T09:06:29.861Z,94816.97
2023-05-25T09:08:56.326Z,94822.09
2023-05-25T09:11:35.175Z,94824.16
2023-05-25T09:14:04.472Z,94830.72
2023-05-25T09:16:31.029Z,94838.91
2023-05-25T09:18:58.354Z,94844.03
2023-05-25T09:21:24.885Z,94847.53
2023-05-25T09:23:51.326Z,94841.81
2023-05-25T09:26:17.842Z,94847.53
2023-05-25T09:28:44.440Z,94843.84
2023-05-25T09:31:10.931Z,94854.09
2023-05-25T09:33:37.381Z,94862.28
2023-05-25T09:36:03.889Z,94867.84
2023-05-25T09:38:30.699Z,94868.88
2023-05-25T09:40:57.304Z,94870.13
2023-05-25T09:43:39.694Z,94879.34
2023-05-25T09:46:06.981Z,94876.09
2023-05-25T09:48:33.505Z,94887.84
2023-05-25T09:51:00.095Z,94883.53
2023-05-25T09:53:26.696Z,94879.41
2023-05-25T09:55:54.445Z,94878.78
2023-05-25T09:58:21.183Z,94868.09
2023-05-25T10:00:47.693Z,94874.69
2023-05-25T10:03:14.179Z,94872.22
2023-05-25T10:05:40.632Z,94872.03
2023-05-25T10:08:07.102Z,94869.75
2023-05-25T10:10:33.553Z,94867.72
2023-05-25T10:13:00.017Z,94878.16
2023-05-25T10:15:26.563Z,94867.28
2023-05-25T10:17:53.053Z,94870.16
2023-05-25T10:20:19.546Z,94876.50
2023-05-25T10:22:46.070Z,94879.81
2023-05-25T10:25:12.705Z,94877.13
2023-05-25T10:27:39.193Z,94882.66
2023-05-25T10:30:05.717Z,94894.56
2023-05-25T10:32:32.177Z,94900.53
2023-05-25T10:34:58.667Z,94905.25
2023-05-25T10:37:25.117Z,94913.44
2023-05-25T10:39:51.574Z,94915.69
2023-05-25T10:42:18.073Z,94914.63
2023-05-25T10:44:44.523Z,94921.59
2023-05-25T10:47:11.124Z,94914.56
2023-05-25T10:49:37.647Z,94922.59
2023-05-25T10:52:04.085Z,94917.69
2023-05-25T10:54:30.513Z,94918.72
2023-05-25T10:56:56.989Z,94929.84
2023-05-25T10:59:23.426Z,94927.53
2023-05-25T11:01:49.908Z,94927.94
2023-05-25T11:04:16.474Z,94926.75
2023-05-25T11:06:43.048Z,94930.63
2023-05-25T11:09:09.538Z,94929.78
2023-05-25T11:11:35.983Z,94933.28
2023-05-25T11:14:02.490Z,94938.19
2023-05-25T11:16:29.009Z,94937.81
2023-05-25T11:18:55.574Z,94939.00
2023-05-25T11:21:22.056Z,94945.78
2023-05-25T11:23:48.567Z,94945.72
2023-05-25T11:26:14.999Z,94941.88
2023-05-25T11:28:41.478Z,94949.72
2023-05-25T11:31:07.984Z,94948.31
2023-05-25T11:33:34.471Z,94952.44
2023-05-25T11:36:00.950Z,94958.63
2023-05-25T11:38:27.374Z,94954.06
2023-05-25T11:40:53.852Z,94953.66
2023-05-25T11:43:20.298Z,94950.16
2023-05-25T11:45:46.725Z,94951.16
2023-05-25T11:48:13.198Z,94954.66
2023-05-25T11:50:39.682Z,94953.47
2023-05-25T11:53:06.163Z,94963.09
2023-05-25T11:55:32.603Z,94952.22
2023-05-25T11:57:59.092Z,94951.81
2023-05-25T12:00:25.585Z,94967.22
2023-05-25T12:02:52.072Z,94963.06
2023-05-25T12:05:18.644Z,94958.75
2023-05-25T12:07:45.222Z,94960.81
2023-05-25T12:10:11.700Z,94958.34
2023-05-25T12:12:38.206Z,94964.06
2023-05-25T12:15:04.658Z,94960.34
2023-05-25T12:17:31.184Z,94955.81
2023-05-25T12:19:57.687Z,94948.56
2023-05-25T12:22:24.170Z,94948.31
2023-05-25T12:24:50.639Z,94954.06
2023-05-25T12:27:17.120Z,94950.16
2023-05-25T12:29:43.573Z,94941.13
2023-05-25T12:32:10.032Z,94942.13
2023-05-25T12:34:36.526Z,94941.47
2023-05-25T12:37:02.979Z,94938.78
2023-05-25T12:39:29.451Z,94935.94
2023-05-25T12:41:55.911Z,94935.50
2023-05-25T12:44:22.936Z,94939.63
2023-05-25T12:46:49.566Z,94939.63
2023-05-25T12:49:16.091Z,94946.44
2023-05-25T12:51:42.531Z,94938.25
2023-05-25T12:54:08.989Z,94937.19
2023-05-25T12:56:35.420Z,94933.69
2023-05-25T12:59:01.897Z,94940.47
2023-05-25T13:01:28.361Z,94941.47
2023-05-25T13:03:54.824Z,94937.28
2023-05-25T13:06:21.272Z,94941.13
2023-05-25T13:08:48.607Z,94944.00
2023-05-25T13:11:15.701Z,94943.81
2023-05-25T13:13:42.205Z,94941.34
2023-05-25T13:16:08.716Z,94942.16
2023-05-25T13:18:35.190Z,94942.41
2023-05-25T13:21:01.924Z,94943.44
2023-05-25T13:23:28.621Z,94949.16
2023-05-25T13:25:55.127Z,94950.44
2023-05-25T13:28:21.590Z,94946.50
2023-05-25T13:30:48.034Z,94944.91
2023-05-25T13:33:14.528Z,94952.03
2023-05-25T13:35:41.067Z,94954.31
2023-05-25T13:38:07.537Z,94951.25
2023-05-25T13:40:33.997Z,94947.31
2023-05-25T13:43:00.444Z,94942.75
2023-05-25T13:45:26.933Z,94945.75
2023-05-25T13:47:53.513Z,94941.38
2023-05-25T13:50:20.023Z,94946.09
2023-05-25T13:52:46.494Z,94946.25
2023-05-25T13:55:13.085Z,94946.44
2023-05-25T13:57:39.525Z,94947.50
2023-05-25T14:00:06.102Z,94948.72
2023-05-25T14:02:32.637Z,94946.19
2023-05-25T14:04:59.175Z,94948.84
2023-05-25T14:07:25.625Z,94947.56
2023-05-25T14:09:52.171Z,94953.53
2023-05-25T14:12:18.694Z,94949.97
2023-05-25T14:14:45.142Z,94956.56
2023-05-25T14:17:11.567Z,94951.00
2023-05-25T14:19:38.016Z,94948.50
2023-05-25T14:22:13.148Z,94949.38
2023-05-25T14:24:41.561Z,94941.78
2023-05-25T14:27:08.041Z,94942.38
2023-05-25T14:29:34.613Z,94939.03
2023-05-25T14:32:01.301Z,94934.28
2023-05-25T14:34:27.992Z,94934.06
2023-05-25T14:36:54.522Z,94941.28
2023-05-25T14:39:21.032Z,94936.13
2023-05-25T14:41:47.509Z,94942.31
2023-05-25T14:44:13.992Z,94934.66
2023-05-25T14:46:40.473Z,94939.97
2023-05-25T14:49:06.940Z,94942.13
2023-05-25T14:51:33.423Z,94945.19
2023-05-25T14:54:00.624Z,94937.59
2023-05-25T14:56:29.190Z,94938.16
2023-05-25T14:58:55.667Z,94941.13
2023-05-25T15:01:25.060Z,94951.31
2023-05-25T15:03:52.247Z,94959.16
2023-05-25T15:06:19.015Z,94951.13
2023-05-25T15:08:45.586Z,94951.13
2023-05-25T15:11:12.075Z,94956.34
2023-05-25T15:13:38.522Z,94958.28
2023-05-25T15:16:05.045Z,94962.00
2023-05-25T15:18:31.570Z,94967.66
2023-05-25T15:20:58.047Z,94970.81
2023-05-25T15:23:24.576Z,94969.47
2023-05-25T15:25:51.030Z,94972.00
2023-05-25T15:28:17.514Z,94972.22
2023-05-25T15:30:43.987Z,94969.53
2023-05-25T15:33:10.640Z,94974.53
2023-05-25T15:35:37.119Z,94975.97
2023-05-25T15:38:03.639Z,94979.00
2023-05-25T15:40:30.109Z,94975.19
2023-05-25T15:42:56.541Z,94973.09
2023-05-25T15:45:23.140Z,94976.00
2023-05-25T15:47:49.708Z,94979.81
2023-05-25T15:50:16.236Z,94978.94
2023-05-25T15:52:42.694Z,94971.19
2023-05-25T15:55:09.285Z,94975.31
2023-05-25T15:57:35.726Z,94981.81
2023-05-25T16:00:02.188Z,94984.97
2023-05-25T16:02:28.650Z,94991.72
2023-05-25T16:04:55.116Z,94993.22
2023-05-25T16:07:21.613Z,94996.97
2023-05-25T16:09:48.101Z,94997.66
2023-05-25T16:12:14.580Z,94994.34
2023-05-25T16:14:41.185Z,94992.31
2023-05-25T16:17:08.730Z,94998.81
2023-05-25T16:19:35.306Z,94990.50
2023-05-25T16:22:01.811Z,95001.38
2023-05-25T16:24:28.382Z,95000.13
2023-05-25T16:26:54.876Z,94997.03
2023-05-25T16:29:21.304Z,94996.88
2023-05-25T16:31:47.793Z,95002.72
2023-05-25T16:34:14.298Z,95002.41
2023-05-25T16:36:40.733Z,95003.47
2023-05-25T16:39:07.188Z,95002.84
2023-05-25T16:41:33.663Z,95004.50
2023-05-25T16:44:00.141Z,95003.81
2023-05-25T16:46:26.592Z,95010.00
2023-05-25T16:48:53.170Z,95015.22
2023-05-25T16:51:19.618Z,95012.09
2023-05-25T16:53:46.264Z,95003.06
2023-05-25T16:56:12.695Z,95004.09
2023-05-25T16:58:39.153Z,95000.03
2023-05-25T17:01:05.594Z,95007.63
2023-05-25T17:03:32.247Z,95006.28
2023-05-25T17:05:58.817Z,95007.53
2023-05-25T17:08:25.293Z,95011.84
2023-05-25T17:10:51.755Z,95014.16
2023-05-25T17:13:18.199Z,95023.47
2023-05-25T17:15:44.792Z,95015.66
2023-05-25T17:18:11.505Z,95017.94
2023-05-25T17:20:38.045Z,95028.09
2023-05-25T17:23:04.513Z,95026.06
2023-05-25T17:25:30.963Z,95025.06
2023-05-25T17:27:57.413Z,95023.50
2023-05-25T17:30:23.853Z,95022.06
2023-05-25T17:32:50.409Z,95021.94
2023-05-25T17:35:16.946Z,95014.91
2023-05-25T17:37:43.449Z,95022.75
2023-05-25T17:40:10.010Z,95022.81
2023-05-25T17:42:36.445Z,95018.75
2023-05-25T17:45:02.894Z,95022.09
2023-05-25T17:47:29.381Z,95022.22
2023-05-25T17:49:55.835Z,95021.88
2023-05-25T17:52:22.302Z,95025.41
2023-05-25T17:54:48.762Z,95035.78
2023-05-25T17:57:15.222Z,95029.47
2023-05-25T17:59:42.388Z,95033.81
2023-05-25T18:02:12.412Z,95041.50
2023-05-25T18:04:39.006Z,95041.75
2023-05-25T18:07:05.465Z,95035.03
2023-05-25T18:09:32.085Z,95035.44
2023-05-25T18:11:58.550Z,95042.44
2023-05-25T18:14:25.204Z,95045.94
2023-05-25T18:16:51.759Z,95047.41
2023-05-25T18:19:18.394Z,95059.75
2023-05-25T18:21:44.866Z,95047.22
2023-05-25T18:24:11.336Z,95052.94
2023-05-25T18:26:37.911Z,95057.47
2023-05-25T18:29:04.712Z,95050.09
2023-05-25T18:31:31.189Z,95051.50
2023-05-25T18:33:57.655Z,95053.16
2023-05-25T18:36:24.112Z,95056.06
2023-05-25T18:38:50.585Z,95062.41
2023-05-25T18:41:18.131Z,95056.88
2023-05-25T18:43:45.771Z,95054.38
2023-05-25T18:46:12.266Z,95060.97
2023-05-25T18:48:38.734Z,95055.63
2023-05-25T18:51:05.185Z,95060.94
2023-05-25T18:53:32.601Z,95062.78
2023-05-25T18:55:59.059Z,95065.06
2023-05-25T18:58:25.511Z,95071.59
2023-05-25T19:00:52.061Z,95067.88
2023-05-25T19:03:19.100Z,95068.47
2023-05-25T19:05:45.911Z,95068.47
2023-05-25T19:08:12.555Z,95077.50
2023-05-25T19:10:39.009Z,95074.22
2023-05-25T19:13:05.465Z,95067.41
2023-05-25T19:15:31.987Z,95074.81
2023-05-25T19:17:58.461Z,95071.91
2023-05-25T19:20:25.110Z,95066.53
2023-05-25T19:22:52.678Z,95066.72
2023-05-25T19:25:19.294Z,95062.22
2023-05-25T19:27:46.886Z,95070.63
2023-05-25T19:30:13.321Z,95067.97
2023-05-25T19:32:39.881Z,95071.44
2023-05-25T19:35:06.364Z,95070.38
2023-05-25T19:37:32.829Z,95085.56
2023-05-25T19:39:59.305Z,95084.72
2023-05-25T19:42:27.506Z,95090.06
2023-05-25T19:44:53.933Z,95088.00
2023-05-25T19:47:20.431Z,95092.88
2023-05-25T19:49:46.907Z,95098.41
2023-05-25T19:52:13.368Z,95096.94
2023-05-25T19:54:39.807Z,95105.38
2023-05-25T19:57:06.283Z,95111.13
2023-05-25T19:59:32.796Z,95110.31
2023-05-25T20:01:59.282Z,95110.72
2023-05-25T20:04:25.771Z,95106.84
2023-05-25T20:06:52.598Z,95107.28
2023-05-25T20:09:19.123Z,95112.00
2023-05-25T20:11:46.047Z,95102.81
2023-05-25T20:14:13.185Z,95108.78
2023-05-25T20:16:39.710Z,95108.19
2023-05-25T20:19:06.198Z,95107.16
2023-05-25T20:21:33.023Z,95106.53
2023-05-25T20:23:59.475Z,95104.25
2023-05-25T20:26:25.916Z,95103.63
2023-05-25T20:28:52.394Z,95104.22
2023-05-25T20:31:18.895Z,95100.09
2023-05-25T20:33:45.456Z,95099.03
2023-05-25T20:36:13.201Z,95099.66
2023-05-25T20:38:40.789Z,95104.16
2023-05-25T20:41:07.239Z,95102.50
2023-05-25T20:43:33.682Z,95100.84
2023-05-25T20:46:00.282Z,95098.00
2023-05-25T20:48:26.781Z,95094.50
2023-05-25T20:50:53.262Z,95091.41
2023-05-25T20:53:19.720Z,95103.09
2023-05-25T20:55:46.392Z,95097.94
2023-05-25T20:58:12.935Z,95102.44
2023-05-25T21:00:39.460Z,95099.97
2023-05-25T21:03:05.921Z,95093.63
2023-05-25T21:05:32.444Z,95101.81
2023-05-25T21:07:58.883Z,95088.66
2023-05-25T21:10:25.738Z,95089.31
2023-05-25T21:12:52.185Z,95089.72
2023-05-25T21:15:18.626Z,95088.91
2023-05-25T21:17:45.165Z,95093.22
2023-05-25T21:20:11.748Z,95097.53
2023-05-25T21:22:38.283Z,95094.69
2023-05-25T21:25:04.711Z,95095.88
2023-05-25T21:27:31.179Z,95095.88
2023-05-25T21:29:57.653Z,95096.72
2023-05-25T21:32:24.116Z,95096.72
2023-05-25T21:34:50.656Z,95096.34
2023-05-25T21:37:17.192Z,95095.09
2023-05-25T21:39:43.717Z,95091.59
2023-05-25T21:42:10.137Z,95102.09
2023-05-25T21:44:36.607Z,95096.56
2023-05-25T21:47:03.098Z,95105.16
2023-05-25T21:49:29.607Z,95101.50
2023-05-25T21:51:56.074Z,95105.41
2023-05-25T21:54:22.506Z,95102.72
2023-05-25T21:56:48.997Z,95101.72
2023-05-25T21:59:15.439Z,95099.03
2023-05-25T22:01:42.114Z,95094.72
2023-05-25T22:04:09.697Z,95098.59
2023-05-25T22:06:36.269Z,95091.38
2023-05-25T22:09:02.711Z,95093.00
2023-05-25T22:11:29.166Z,95097.06
2023-05-25T22:13:55.613Z,95099.50
2023-05-25T22:16:22.083Z,95089.03
2023-05-25T22:18:48.740Z,95086.97
2023-05-25T22:21:15.301Z,95089.38
2023-05-25T22:23:41.766Z,95089.16
2023-05-25T22:26:08.218Z,95095.28
2023-05-25T22:28:35.578Z,95086.50
2023-05-25T22:31:02.182Z,95087.50
2023-05-25T22:33:28.680Z,95088.69
2023-05-25T22:35:55.155Z,95097.53
2023-05-25T22:38:21.718Z,95088.69
2023-05-25T22:40:48.157Z,95087.69
2023-05-25T22:43:14.627Z,95091.81
2023-05-25T22:45:41.174Z,95086.50
2023-05-25T22:48:07.722Z,95084.06
2023-05-25T22:50:34.214Z,95083.22
2023-05-25T22:53:01.460Z,95092.47
2023-05-25T22:55:27.894Z,95085.94
2023-05-25T22:57:54.354Z,95088.63
2023-05-25T23:00:20.825Z,95083.56
2023-05-25T23:02:47.959Z,95079.28
2023-05-25T23:05:15.383Z,95086.88
2023-05-25T23:07:41.838Z,95082.38
2023-05-25T23:10:08.274Z,95084.63
2023-05-25T23:12:34.737Z,95081.13
2023-05-25T23:15:01.197Z,95084.84
2023-05-25T23:17:27.661Z,95079.28
2023-05-25T23:19:54.229Z,95080.47
2023-05-25T23:22:20.774Z,95083.56
2023-05-25T23:24:47.214Z,95076.75
2023-05-25T23:27:13.657Z,95081.84
2023-05-25T23:29:40.133Z,95088.81
2023-05-25T23:32:07.864Z,95082.81
2023-05-25T23:34:34.305Z,95080.41
2023-05-25T23:37:00.749Z,95088.38
2023-05-25T23:39:27.320Z,95080.81
2023-05-25T23:41:53.762Z,95080.34
2023-05-25T23:44:20.218Z,95081.16
2023-05-25T23:46:46.656Z,95082.94
2023-05-25T23:49:13.107Z,95081.88
2023-05-25T23:51:39.578Z,95079.81
2023-05-25T23:54:06.047Z,95075.03
2023-05-25T23:56:32.508Z,95072.94
2023-05-25T23:58:58.979Z,95075.16
